Etusivu
METAR-TAF:

METAR-TAF

Lentoasemat :

Storuman, Ruotsi

Leveyspiiri: 64-57-39N, Pituuspiiri: 017-41-47E, korkeus merenpinnasta: 279 m

Tämänhetkinen sää

Tämä raportti tehtiin 16 minuuttia sitten, kello 04.50 UTC
Tuuli 9 kn pohjoisen/luoteesta
Lämpötila 7°C
Kosteus 61%
Ilmanpaine 1013 hPa
Näkyvyys 10 km tai enemmän

METAR: ESUD 230450Z AUTO 34009KT 9999 NCD 07/M00 Q1013

Aika: 07:06 (05:06 UTC)


TAF: puuttuu

Säähavainnot ja -ennusteet yli 4000 lentoasemalta (METAR- ja TAF-raportit).

Käytössä olevat sääasemat on merkitty karttaan keltaisilla ja punaisilla pisteillä.

Aseta hiiri pisteen päälle nähdäksesi sääaseman nimen.

Klikkaa sitten nähdäksesi säähavainnot ja -ennusteet.

Kartan vaihtaminen: klikkaa mustalla rastilla varustettuja vihreitä pisteitä, niin voit zoomata sisään; viivalla varustettua vihreää pistettä, niin voit zoomata ulos tai vihreitä nuolia, niin pääset viereisille kartoille.


METAR-TAF: